Time;durP1;ratioP1;P1;durP2;ratioP2;P2;SDS_P1;SDS_P2;PMS_P1;PMS_P2;Temp;Humidity;BMP_temperature;BMP_pressure;BME280_temperature;BME280_humidity;BME280_pressure;Samples;Min_cycle;Max_cycle;Signal;HPM_P1;HPM_P2
2021/08/23 00:02:12;;;;;;;5.47;3.60;;;19.60;72.90;;;;;;4973927;28;20195;-52
2021/08/23 00:04:38;;;;;;;8.17;3.37;;;19.50;72.90;;;;;;4972969;28;20655;-52
2021/08/23 00:07:04;;;;;;;3.70;3.40;;;19.50;73.00;;;;;;4973920;28;20227;-50
2021/08/23 00:09:30;;;;;;;4.93;3.80;;;19.70;72.40;;;;;;4974509;28;20195;-51
2021/08/23 00:11:57;;;;;;;4.03;3.67;;;19.90;71.70;;;;;;4973133;28;20630;-52
2021/08/23 00:14:23;;;;;;;5.03;3.30;;;20.00;71.20;;;;;;4985570;28;20936;-51
2021/08/23 00:16:48;;;;;;;4.93;3.60;;;20.20;70.70;;;;;;4993179;28;20430;-51
2021/08/23 00:19:14;;;;;;;4.87;2.93;;;20.20;70.10;;;;;;4993304;28;20236;-52
2021/08/23 00:21:43;;;;;;;3.97;3.60;;;20.40;70.00;;;;;;4991323;28;20616;-51
2021/08/23 00:24:32;;;;;;;4.47;3.60;;;20.40;69.70;;;;;;4993722;28;20206;-47
2021/08/23 00:26:59;;;;;;;4.83;3.80;;;20.40;69.60;;;;;;4992900;28;20445;-52
2021/08/23 00:29:25;;;;;;;5.93;3.47;;;20.40;69.60;;;;;;4991835;28;20430;-50
2021/08/23 00:31:52;;;;;;;4.30;3.90;;;20.40;69.30;;;;;;4992230;28;20426;-52
2021/08/23 00:34:18;;;;;;;5.27;3.70;;;20.30;69.60;;;;;;4993540;28;20437;-47
2021/08/23 00:36:44;;;;;;;4.10;3.20;;;20.40;69.50;;;;;;4992797;28;21009;-51
2021/08/23 00:39:14;;;;;;;4.10;3.80;;;20.50;69.10;;;;;;4993057;28;20198;-52
2021/08/23 00:41:41;;;;;;;3.83;3.40;;;20.50;68.90;;;;;;4992344;28;20492;-52
2021/08/23 00:44:08;;;;;;;4.93;3.60;;;20.50;68.90;;;;;;4993262;28;20430;-51
2021/08/23 00:46:35;;;;;;;3.70;3.33;;;20.40;68.90;;;;;;4993080;28;20772;-50
2021/08/23 00:49:01;;;;;;;6.77;3.70;;;20.50;68.60;;;;;;4992911;28;20541;-52
2021/08/23 00:51:27;;;;;;;4.67;4.27;;;20.50;68.60;;;;;;4992503;28;20430;-48
2021/08/23 00:53:53;;;;;;;4.47;4.00;;;20.60;68.50;;;;;;4976253;28;20431;-48
2021/08/23 00:56:20;;;;;;;4.43;3.33;;;20.70;68.40;;;;;;4972068;28;20240;-49
2021/08/23 00:58:53;;;;;;;3.80;3.30;;;20.60;68.30;;;;;;4972692;28;20191;-50
2021/08/23 01:01:33;;;;;;;3.63;3.30;;;20.60;68.20;;;;;;4973308;28;20549;-52
2021/08/23 01:04:06;;;;;;;6.23;4.57;;;20.60;68.40;;;;;;4973293;28;20954;-51
2021/08/23 01:06:32;;;;;;;4.00;3.40;;;20.70;68.30;;;;;;4973491;28;20982;-47
2021/08/23 01:09:03;;;;;;;4.10;3.70;;;20.80;68.30;;;;;;4972838;28;20435;-51
2021/08/23 01:11:33;;;;;;;4.10;3.63;;;20.60;67.80;;;;;;4973159;28;20435;-47
2021/08/23 01:13:59;;;;;;;5.10;3.47;;;20.60;68.20;;;;;;4981598;28;20834;-47
2021/08/23 01:16:25;;;;;;;4.17;3.03;;;20.60;68.30;;;;;;4992492;28;20679;-51
2021/08/23 01:18:51;;;;;;;3.27;2.97;;;20.60;68.10;;;;;;4992090;28;20469;-48
2021/08/23 01:21:24;;;;;;;9.30;3.27;;;20.70;67.90;;;;;;4990800;28;20891;-48
2021/08/23 01:23:52;;;;;;;4.40;3.50;;;20.80;67.90;;;;;;4990659;28;20194;-47
2021/08/23 01:26:25;;;;;;;5.00;3.73;;;20.80;67.40;;;;;;4992754;28;20422;-47
2021/08/23 01:29:08;;;;;;;6.90;3.50;;;20.90;67.40;;;;;;4992028;28;20441;-47
2021/08/23 01:31:42;;;;;;;5.00;3.60;;;20.90;67.40;;;;;;4991857;28;20528;-47
2021/08/23 01:34:09;;;;;;;8.40;3.90;;;20.90;67.50;;;;;;4992361;28;20430;-47
2021/08/23 01:36:35;;;;;;;6.80;3.00;;;21.00;67.50;;;;;;4992006;28;20437;-49
2021/08/23 01:39:01;;;;;;;3.83;3.47;;;21.00;67.40;;;;;;4992237;28;20436;-47
2021/08/23 01:41:27;;;;;;;4.67;3.10;;;20.90;67.30;;;;;;4991777;28;20485;-48
2021/08/23 01:43:52;;;;;;;3.83;3.53;;;20.90;67.30;;;;;;4991213;28;20194;-52
2021/08/23 01:46:18;;;;;;;3.60;3.30;;;20.80;67.40;;;;;;4991157;28;20245;-48
2021/08/23 01:48:44;;;;;;;3.07;2.87;;;20.80;67.80;;;;;;4989990;28;20698;-47
2021/08/23 01:51:09;;;;;;;3.67;2.97;;;20.80;67.80;;;;;;4991984;28;20194;-47
2021/08/23 01:53:35;;;;;;;5.73;3.30;;;20.90;67.40;;;;;;4972681;28;20274;-47
2021/08/23 01:56:01;;;;;;;3.90;3.00;;;20.90;66.90;;;;;;4972752;28;20572;-48
2021/08/23 01:58:27;;;;;;;4.33;3.03;;;20.80;66.80;;;;;;4972121;28;20205;-48
2021/08/23 02:00:53;;;;;;;2.83;2.53;;;20.90;67.00;;;;;;4972405;28;20489;-49
2021/08/23 02:03:19;;;;;;;4.53;3.67;;;20.90;67.10;;;;;;4972266;28;20791;-47
2021/08/23 02:05:45;;;;;;;6.20;3.80;;;20.90;67.10;;;;;;4972929;28;20222;-47
2021/08/23 02:08:11;;;;;;;4.13;3.30;;;20.90;67.30;;;;;;4971884;28;20199;-47
2021/08/23 02:10:37;;;;;;;4.03;3.27;;;21.00;67.40;;;;;;4972411;28;20199;-47
2021/08/23 02:13:03;;;;;;;3.07;2.87;;;21.00;67.20;;;;;;4973530;28;20475;-47
2021/08/23 02:15:28;;;;;;;4.23;3.07;;;21.10;67.30;;;;;;4990465;28;20437;-47
2021/08/23 02:17:54;;;;;;;3.67;3.37;;;21.00;66.90;;;;;;4991556;28;20894;-47
2021/08/23 02:20:20;;;;;;;8.93;3.37;;;21.00;67.00;;;;;;4989824;28;20223;-47
2021/08/23 02:22:46;;;;;;;3.63;3.33;;;21.10;67.20;;;;;;4991432;28;20229;-47
2021/08/23 02:25:12;;;;;;;3.60;3.30;;;21.10;67.10;;;;;;4992314;28;20433;-47
2021/08/23 02:27:37;;;;;;;6.80;3.37;;;21.10;67.20;;;;;;4991567;28;20711;-47
2021/08/23 02:30:03;;;;;;;3.53;3.23;;;21.10;67.40;;;;;;4991307;28;20202;-47
2021/08/23 02:32:29;;;;;;;7.50;3.80;;;21.10;67.30;;;;;;4991343;28;20205;-47
2021/08/23 02:34:54;;;;;;;4.63;3.20;;;21.10;67.30;;;;;;4991833;28;20437;-47
2021/08/23 02:37:20;;;;;;;4.20;3.30;;;21.10;67.50;;;;;;4991442;28;20191;-47
2021/08/23 02:39:45;;;;;;;4.97;3.97;;;21.10;67.70;;;;;;4991399;28;20195;-47
2021/08/23 02:42:11;;;;;;;3.60;3.33;;;21.10;68.00;;;;;;4989574;28;20301;-48
2021/08/23 02:44:37;;;;;;;3.27;2.97;;;21.10;68.20;;;;;;4992022;28;20607;-47
2021/08/23 02:47:02;;;;;;;6.17;3.23;;;21.10;68.10;;;;;;4991231;28;20278;-48
2021/08/23 02:49:28;;;;;;;8.07;3.30;;;21.10;68.00;;;;;;4991745;28;20195;-47
2021/08/23 02:51:54;;;;;;;3.63;3.33;;;21.10;68.00;;;;;;4990598;28;20785;-52
2021/08/23 02:54:20;;;;;;;3.60;3.30;;;21.10;68.10;;;;;;4973167;28;20291;-52
2021/08/23 02:56:45;;;;;;;3.30;3.00;;;21.10;68.00;;;;;;4975307;28;20274;-51
2021/08/23 02:59:11;;;;;;;3.30;2.80;;;21.20;68.10;;;;;;4975834;28;20199;-51
2021/08/23 03:01:37;;;;;;;4.43;3.43;;;21.20;68.10;;;;;;4974682;28;20675;-52
2021/08/23 03:04:02;;;;;;;3.20;2.90;;;21.20;68.30;;;;;;4975704;28;20195;-52
2021/08/23 03:06:28;;;;;;;7.33;3.73;;;21.20;68.30;;;;;;4975751;28;20187;-52
2021/08/23 03:08:54;;;;;;;3.80;3.50;;;21.20;68.40;;;;;;4973536;28;20195;-51
2021/08/23 03:11:19;;;;;;;3.70;3.40;;;21.20;68.30;;;;;;4975154;28;20187;-51
2021/08/23 03:13:45;;;;;;;5.00;3.80;;;21.20;68.30;;;;;;4981756;28;20261;-49
2021/08/23 03:16:11;;;;;;;5.63;3.33;;;21.20;68.50;;;;;;4995405;28;20206;-50
2021/08/23 03:18:37;;;;;;;4.10;3.60;;;21.20;68.60;;;;;;4994525;28;20187;-49
2021/08/23 03:21:03;;;;;;;4.60;3.47;;;21.20;68.60;;;;;;4992308;28;20500;-50
2021/08/23 03:23:30;;;;;;;5.00;2.87;;;21.10;68.50;;;;;;4994520;28;20252;-49
2021/08/23 03:25:56;;;;;;;5.37;3.30;;;21.10;68.40;;;;;;4995022;28;20460;-50
2021/08/23 03:28:22;;;;;;;4.07;3.47;;;21.10;68.30;;;;;;4994016;28;20438;-47
2021/08/23 03:30:48;;;;;;;3.70;3.40;;;21.00;68.50;;;;;;4994391;28;20430;-48
2021/08/23 03:33:14;;;;;;;5.77;3.30;;;21.10;68.60;;;;;;4994020;28;20195;-51
2021/08/23 03:35:39;;;;;;;4.17;3.77;;;21.10;68.50;;;;;;4993147;28;20191;-51
2021/08/23 03:38:05;;;;;;;6.93;3.50;;;21.10;68.50;;;;;;4993945;28;20434;-50
2021/08/23 03:40:31;;;;;;;4.80;4.30;;;21.10;68.60;;;;;;4993959;28;20226;-47
2021/08/23 03:42:57;;;;;;;3.53;3.23;;;21.10;68.80;;;;;;4994092;28;20187;-50
2021/08/23 03:45:22;;;;;;;4.47;3.17;;;21.00;69.10;;;;;;4994869;28;20426;-50
2021/08/23 03:47:48;;;;;;;3.40;3.10;;;21.00;69.20;;;;;;4993956;28;20202;-51
2021/08/23 03:50:14;;;;;;;4.43;3.77;;;20.90;69.20;;;;;;4993725;28;20249;-47
2021/08/23 03:52:39;;;;;;;4.90;3.93;;;21.00;69.40;;;;;;4987898;28;20195;-47
2021/08/23 03:55:07;;;;;;;4.03;3.60;;;21.00;69.30;;;;;;4974948;28;20191;-48
2021/08/23 03:57:34;;;;;;;8.20;3.90;;;21.00;69.30;;;;;;4974445;28;20202;-47
2021/08/23 04:00:01;;;;;;;6.67;3.83;;;21.00;69.30;;;;;;4974155;28;20801;-47
2021/08/23 04:02:26;;;;;;;5.53;3.37;;;21.10;69.30;;;;;;4972336;28;20481;-51
2021/08/23 04:04:52;;;;;;;8.03;3.77;;;21.10;69.50;;;;;;4974994;28;20784;-47
2021/08/23 04:07:17;;;;;;;4.40;3.23;;;21.10;69.40;;;;;;4973167;28;20199;-51
2021/08/23 04:09:43;;;;;;;4.90;3.90;;;21.10;69.50;;;;;;4974090;28;20211;-47
2021/08/23 04:12:09;;;;;;;5.03;3.33;;;21.10;69.50;;;;;;4973865;28;20239;-49
2021/08/23 04:14:34;;;;;;;7.70;3.53;;;21.10;69.30;;;;;;4987922;28;20202;-52
2021/08/23 04:17:00;;;;;;;4.27;3.97;;;21.10;69.30;;;;;;4993495;28;20198;-47
2021/08/23 04:19:25;;;;;;;4.47;3.13;;;21.10;69.50;;;;;;4991313;28;20199;-50
2021/08/23 04:21:52;;;;;;;4.13;3.43;;;21.00;69.40;;;;;;4992581;28;20810;-46
2021/08/23 04:24:17;;;;;;;4.40;3.10;;;20.90;69.40;;;;;;4993725;28;20544;-51
2021/08/23 04:26:43;;;;;;;3.70;3.40;;;21.00;69.70;;;;;;4991719;28;20457;-47
2021/08/23 04:29:08;;;;;;;4.13;3.10;;;21.00;69.50;;;;;;4992022;28;20207;-46
2021/08/23 04:31:34;;;;;;;5.47;3.50;;;21.10;69.40;;;;;;4992963;28;20207;-50
2021/08/23 04:34:00;;;;;;;3.40;3.20;;;21.10;69.20;;;;;;4993186;28;20194;-47
2021/08/23 04:36:26;;;;;;;3.80;3.60;;;21.10;69.10;;;;;;4993386;28;20205;-51
2021/08/23 04:38:51;;;;;;;8.13;3.30;;;21.10;69.20;;;;;;4992827;28;20195;-47
2021/08/23 04:41:17;;;;;;;4.53;3.40;;;21.10;69.30;;;;;;4992810;28;20821;-46
2021/08/23 04:43:43;;;;;;;3.73;3.40;;;21.10;69.30;;;;;;4992721;28;20226;-48
2021/08/23 04:46:08;;;;;;;6.00;3.87;;;21.10;69.20;;;;;;4993232;28;20206;-50
2021/08/23 04:48:34;;;;;;;3.67;3.37;;;21.10;68.90;;;;;;4992617;28;20202;-48
2021/08/23 04:51:02;;;;;;;3.43;3.23;;;21.00;68.90;;;;;;4974545;28;20250;-47
2021/08/23 04:53:29;;;;;;;4.90;3.37;;;21.00;69.00;;;;;;4979365;28;20227;-46
2021/08/23 04:55:55;;;;;;;4.03;3.50;;;21.00;69.10;;;;;;4971849;28;20423;-47
2021/08/23 04:58:22;;;;;;;6.70;3.50;;;21.10;69.10;;;;;;4972947;28;20433;-47
2021/08/23 05:00:48;;;;;;;4.70;4.00;;;21.10;69.20;;;;;;4973116;28;20982;-46
2021/08/23 05:03:14;;;;;;;5.00;3.57;;;21.10;69.20;;;;;;4972970;28;20467;-48
2021/08/23 05:05:41;;;;;;;3.90;3.60;;;21.10;69.50;;;;;;4973389;28;20555;-49
2021/08/23 05:08:07;;;;;;;3.40;3.10;;;21.20;69.60;;;;;;4972974;28;20203;-48
2021/08/23 05:10:32;;;;;;;7.10;4.70;;;21.20;69.70;;;;;;4973120;28;20445;-47
2021/08/23 05:12:58;;;;;;;5.33;3.90;;;21.20;69.60;;;;;;4973125;28;20265;-47
2021/08/23 05:15:24;;;;;;;4.23;3.53;;;21.20;69.60;;;;;;4992739;28;20194;-47
2021/08/23 05:17:50;;;;;;;3.63;3.33;;;21.20;69.60;;;;;;4992237;28;20270;-47
2021/08/23 05:20:17;;;;;;;4.07;3.53;;;21.20;69.90;;;;;;4989264;28;20453;-47
2021/08/23 05:22:42;;;;;;;4.37;3.47;;;21.20;70.10;;;;;;4992259;28;20942;-46
2021/08/23 05:25:08;;;;;;;5.33;3.43;;;21.20;70.10;;;;;;4992532;28;20418;-46
2021/08/23 05:27:34;;;;;;;5.80;3.00;;;21.20;70.10;;;;;;4992053;28;20194;-46
2021/08/23 05:30:01;;;;;;;3.50;3.20;;;21.30;70.10;;;;;;4992124;28;20440;-47
2021/08/23 05:32:27;;;;;;;4.87;3.43;;;21.30;70.00;;;;;;4991994;28;20441;-47
2021/08/23 05:34:53;;;;;;;5.03;3.00;;;21.30;69.90;;;;;;4992537;28;20441;-48
2021/08/23 05:37:20;;;;;;;4.47;3.80;;;21.30;69.80;;;;;;4992429;28;20194;-47
2021/08/23 05:39:46;;;;;;;4.63;3.23;;;21.30;69.70;;;;;;4992027;28;20194;-47
2021/08/23 05:42:12;;;;;;;3.97;3.57;;;21.30;69.40;;;;;;4991895;28;20489;-47
2021/08/23 05:44:37;;;;;;;6.53;4.20;;;21.30;69.40;;;;;;4992162;28;20437;-47
2021/08/23 05:47:03;;;;;;;4.00;3.70;;;21.30;69.20;;;;;;4990238;28;20682;-47
2021/08/23 05:49:29;;;;;;;3.73;3.43;;;21.40;69.30;;;;;;4991876;28;20198;-51
2021/08/23 05:51:54;;;;;;;3.90;3.50;;;21.40;69.20;;;;;;4991774;28;20592;-51
2021/08/23 05:54:20;;;;;;;4.87;3.97;;;21.40;69.30;;;;;;4972884;28;20199;-51
2021/08/23 05:56:46;;;;;;;3.90;3.50;;;21.40;69.20;;;;;;4972211;28;20251;-49
2021/08/23 05:59:11;;;;;;;3.80;3.23;;;21.50;69.30;;;;;;4972908;28;20569;-51
2021/08/23 06:01:37;;;;;;;5.33;3.93;;;21.40;69.20;;;;;;4972113;28;20230;-52
2021/08/23 06:04:02;;;;;;;4.00;3.60;;;21.50;69.20;;;;;;4972854;28;20199;-52
2021/08/23 06:06:28;;;;;;;3.67;3.37;;;21.40;70.10;;;;;;4972644;28;20195;-51
2021/08/23 06:08:54;;;;;;;5.93;3.63;;;21.40;69.60;;;;;;4972185;28;20286;-51
2021/08/23 06:11:19;;;;;;;5.20;4.17;;;21.40;69.70;;;;;;4972532;28;20187;-49
2021/08/23 06:13:45;;;;;;;5.97;4.10;;;21.50;69.90;;;;;;4977001;28;20726;-49
2021/08/23 06:16:10;;;;;;;4.30;3.90;;;21.50;69.90;;;;;;4991972;28;20193;-52
2021/08/23 06:18:36;;;;;;;4.83;4.20;;;21.50;69.70;;;;;;4991355;28;20647;-51
2021/08/23 06:21:03;;;;;;;3.90;3.30;;;21.50;69.60;;;;;;4988303;28;20308;-51
2021/08/23 06:23:28;;;;;;;6.70;4.00;;;21.50;69.50;;;;;;4991340;28;20745;-53
2021/08/23 06:25:54;;;;;;;4.80;3.73;;;21.40;70.20;;;;;;4992132;28;20509;-51
2021/08/23 06:28:20;;;;;;;3.80;3.50;;;21.40;70.50;;;;;;4991402;28;20270;-52
2021/08/23 06:30:46;;;;;;;4.50;4.13;;;21.50;70.60;;;;;;4994486;28;20198;-50
2021/08/23 06:33:12;;;;;;;5.50;3.40;;;21.40;70.40;;;;;;4995051;28;20768;-46
2021/08/23 06:35:38;;;;;;;4.20;3.30;;;21.50;70.50;;;;;;4995765;28;20429;-52
2021/08/23 06:38:03;;;;;;;4.33;3.77;;;21.60;70.30;;;;;;4994798;28;20193;-47
2021/08/23 06:40:29;;;;;;;6.87;3.73;;;21.60;70.40;;;;;;4993527;28;20250;-51
2021/08/23 06:42:55;;;;;;;4.83;4.10;;;21.60;70.40;;;;;;4994896;28;20529;-47
2021/08/23 06:45:20;;;;;;;5.07;4.30;;;21.70;70.50;;;;;;4995643;28;20245;-47
2021/08/23 06:47:46;;;;;;;5.03;3.73;;;21.80;70.60;;;;;;4995112;28;20190;-48
2021/08/23 06:50:11;;;;;;;4.30;3.20;;;21.80;70.50;;;;;;4995360;28;20598;-48
2021/08/23 06:52:39;;;;;;;5.70;3.80;;;21.90;70.20;;;;;;4988856;28;20198;-51
2021/08/23 06:55:05;;;;;;;3.93;3.53;;;22.00;69.90;;;;;;4975949;28;20207;-47
2021/08/23 06:57:31;;;;;;;4.20;3.07;;;22.10;69.60;;;;;;4974894;28;20496;-51
2021/08/23 06:59:56;;;;;;;8.17;3.17;;;22.00;68.50;;;;;;4975659;28;20426;-50
2021/08/23 07:02:22;;;;;;;5.63;3.80;;;22.00;68.70;;;;;;4975609;28;20222;-47
2021/08/23 07:04:49;;;;;;;5.20;3.60;;;22.10;68.90;;;;;;4976029;28;20341;-47
2021/08/23 07:07:16;;;;;;;5.17;3.57;;;22.20;68.70;;;;;;4973593;28;20199;-50
2021/08/23 07:09:42;;;;;;;4.07;3.60;;;22.20;68.60;;;;;;4975262;28;20835;-47
2021/08/23 07:12:08;;;;;;;3.60;3.30;;;22.20;68.70;;;;;;4974995;28;20466;-48
2021/08/23 07:14:36;;;;;;;3.57;3.27;;;22.20;68.00;;;;;;4988932;28;20558;-50
2021/08/23 07:17:01;;;;;;;5.97;4.03;;;22.20;68.50;;;;;;4994185;28;20206;-49
2021/08/23 07:19:27;;;;;;;7.93;3.27;;;22.30;68.50;;;;;;4992892;28;20914;-50
2021/08/23 07:21:53;;;;;;;5.70;4.20;;;22.20;68.20;;;;;;4994348;28;20230;-48
2021/08/23 07:24:19;;;;;;;4.10;3.60;;;22.10;68.50;;;;;;4995199;28;20198;-48
2021/08/23 07:26:44;;;;;;;5.67;3.17;;;22.00;67.90;;;;;;4994127;28;20433;-47
2021/08/23 07:29:13;;;;;;;3.77;3.47;;;22.20;68.20;;;;;;4994417;28;20333;-49
2021/08/23 07:31:39;;;;;;;5.17;3.83;;;22.30;68.30;;;;;;4994348;28;20285;-50
2021/08/23 07:34:05;;;;;;;4.57;4.10;;;22.30;68.10;;;;;;4993076;28;20421;-47
2021/08/23 07:36:30;;;;;;;9.83;3.40;;;22.40;67.50;;;;;;4994610;28;20917;-50
2021/08/23 07:38:56;;;;;;;3.73;3.43;;;22.30;67.40;;;;;;4993943;28;20206;-47
2021/08/23 07:41:22;;;;;;;4.13;3.27;;;22.40;67.90;;;;;;4993241;28;20227;-50
2021/08/23 07:43:47;;;;;;;4.80;3.63;;;22.50;68.10;;;;;;4993709;28;20685;-49
2021/08/23 07:46:13;;;;;;;4.47;4.00;;;22.60;68.10;;;;;;4994477;28;20261;-47
2021/08/23 07:48:38;;;;;;;4.10;3.60;;;22.70;67.70;;;;;;4994186;28;20194;-47
2021/08/23 07:51:04;;;;;;;8.77;4.10;;;22.70;67.30;;;;;;4993936;28;20195;-46
2021/08/23 07:53:30;;;;;;;4.53;3.70;;;22.70;66.60;;;;;;4980976;28;20199;-47
2021/08/23 07:55:55;;;;;;;5.40;3.73;;;22.80;66.40;;;;;;4974743;28;20195;-48
2021/08/23 07:58:21;;;;;;;3.70;3.40;;;22.80;66.00;;;;;;4974506;28;20258;-48
2021/08/23 08:00:46;;;;;;;3.40;3.10;;;22.70;65.40;;;;;;4972866;28;20231;-46
2021/08/23 08:03:12;;;;;;;3.63;3.33;;;22.70;65.90;;;;;;4974382;28;20310;-47
2021/08/23 08:05:38;;;;;;;7.20;4.10;;;22.70;66.50;;;;;;4974540;28;20199;-47
2021/08/23 08:08:08;;;;;;;5.27;3.60;;;22.70;66.30;;;;;;4974022;28;20203;-47
2021/08/23 08:10:35;;;;;;;4.97;4.57;;;22.70;66.30;;;;;;4974251;28;20218;-49
2021/08/23 08:13:00;;;;;;;4.20;3.80;;;22.80;66.30;;;;;;4974408;28;20476;-47
2021/08/23 08:15:26;;;;;;;4.60;4.20;;;22.80;66.40;;;;;;4993693;28;20911;-46
2021/08/23 08:17:52;;;;;;;4.30;3.90;;;22.80;66.50;;;;;;4993623;28;20659;-46
2021/08/23 08:20:17;;;;;;;4.80;4.43;;;22.90;67.00;;;;;;4991143;28;20650;-46
2021/08/23 08:22:44;;;;;;;8.97;4.63;;;22.90;67.10;;;;;;4993551;28;20237;-46
2021/08/23 08:25:10;;;;;;;5.97;4.60;;;22.90;67.20;;;;;;4993779;28;20713;-47
2021/08/23 08:27:37;;;;;;;4.70;3.93;;;23.00;67.10;;;;;;4991351;28;20435;-46
2021/08/23 08:30:04;;;;;;;4.53;4.13;;;23.00;67.40;;;;;;4993141;28;20870;-47
2021/08/23 08:32:30;;;;;;;6.40;4.43;;;23.00;67.40;;;;;;4992770;28;20434;-47
2021/08/23 08:34:55;;;;;;;6.90;4.10;;;23.10;67.60;;;;;;4993507;28;20460;-47
2021/08/23 08:37:21;;;;;;;5.00;4.60;;;23.10;67.70;;;;;;4992701;28;20657;-47
2021/08/23 08:39:47;;;;;;;5.30;4.50;;;23.20;67.90;;;;;;4991847;28;20333;-48
2021/08/23 08:42:14;;;;;;;4.50;4.10;;;23.20;67.40;;;;;;4992686;28;20291;-47
2021/08/23 08:44:39;;;;;;;9.43;4.40;;;23.20;67.20;;;;;;4993545;28;20706;-47
2021/08/23 08:47:06;;;;;;;5.67;4.47;;;23.30;67.50;;;;;;4992370;28;20572;-47
2021/08/23 08:49:35;;;;;;;4.60;4.13;;;23.30;67.20;;;;;;4992933;28;20190;-51
2021/08/23 08:52:03;;;;;;;6.40;4.40;;;23.30;67.30;;;;;;4990697;28;20440;-53
2021/08/23 08:54:28;;;;;;;5.37;3.70;;;23.40;67.70;;;;;;4973724;28;20438;-50
2021/08/23 08:56:54;;;;;;;6.60;4.53;;;23.40;67.70;;;;;;4973048;28;20505;-51
2021/08/23 08:59:19;;;;;;;4.97;4.57;;;23.40;67.40;;;;;;4973446;28;20191;-51
2021/08/23 09:01:48;;;;;;;5.30;3.87;;;23.50;67.70;;;;;;4972855;28;20705;-50
2021/08/23 09:04:14;;;;;;;7.43;4.73;;;23.50;67.60;;;;;;4973814;28;20202;-52
2021/08/23 09:06:41;;;;;;;4.87;3.97;;;23.60;67.30;;;;;;4972765;28;20423;-52
2021/08/23 09:09:13;;;;;;;7.57;4.23;;;23.60;66.60;;;;;;4973153;28;20677;-51
2021/08/23 09:11:40;;;;;;;7.00;4.37;;;23.60;65.60;;;;;;4972684;28;20917;-50
2021/08/23 09:14:08;;;;;;;6.57;4.67;;;23.50;66.20;;;;;;4983050;28;20430;-49
2021/08/23 09:16:39;;;;;;;10.00;5.10;;;23.60;66.60;;;;;;4992752;28;20426;-52
2021/08/23 09:19:06;;;;;;;4.87;3.93;;;23.80;67.70;;;;;;4990819;28;20842;-51
2021/08/23 09:21:40;;;;;;;7.20;4.17;;;23.90;66.00;;;;;;4990263;28;20478;-51
2021/08/23 09:24:17;;;;;;;6.07;4.23;;;24.20;67.60;;;;;;4992776;28;20448;-52
2021/08/23 09:26:43;;;;;;;6.67;4.37;;;24.40;67.90;;;;;;4991747;28;20441;-51
2021/08/23 09:29:09;;;;;;;4.77;4.37;;;24.50;65.00;;;;;;4992227;28;20424;-52
2021/08/23 09:31:37;;;;;;;4.90;4.00;;;24.60;64.10;;;;;;4992391;28;20441;-52
2021/08/23 09:34:08;;;;;;;4.07;3.77;;;24.70;62.90;;;;;;4992415;28;20206;-52
2021/08/23 09:36:34;;;;;;;4.63;4.23;;;24.80;63.70;;;;;;4992195;28;20520;-52
2021/08/23 09:39:06;;;;;;;9.83;3.77;;;24.90;63.20;;;;;;4991725;28;20985;-51
2021/08/23 09:41:40;;;;;;;6.07;3.80;;;25.00;63.40;;;;;;4992414;28;20561;-52
2021/08/23 09:44:08;;;;;;;3.93;3.43;;;24.90;61.80;;;;;;4992429;28;20491;-51
2021/08/23 09:46:36;;;;;;;4.00;3.40;;;24.90;60.50;;;;;;4990470;28;20517;-52
2021/08/23 09:49:04;;;;;;;3.80;3.50;;;24.80;60.60;;;;;;4991545;28;20790;-52
2021/08/23 09:51:41;;;;;;;3.20;3.00;;;24.70;60.10;;;;;;4992280;28;20426;-51
2021/08/23 09:54:13;;;;;;;4.60;4.10;;;24.60;59.90;;;;;;4975085;28;20881;-52
2021/08/23 09:56:53;;;;;;;4.27;3.53;;;24.50;61.40;;;;;;4972429;28;20938;-51
2021/08/23 09:59:24;;;;;;;3.17;2.90;;;24.50;61.50;;;;;;4972622;28;20865;-51
2021/08/23 10:01:51;;;;;;;3.83;3.27;;;24.60;62.30;;;;;;4972307;28;20497;-52
2021/08/23 10:04:18;;;;;;;4.67;4.00;;;24.50;61.90;;;;;;4973392;28;20454;-52
2021/08/23 10:06:45;;;;;;;3.23;3.03;;;24.50;63.30;;;;;;4975955;28;20465;-51
2021/08/23 10:09:22;;;;;;;4.10;3.53;;;24.50;62.90;;;;;;4976834;28;20875;-52
2021/08/23 10:11:49;;;;;;;3.80;3.40;;;24.60;61.90;;;;;;4974433;28;20441;-52
2021/08/23 10:14:15;;;;;;;3.63;3.27;;;24.70;61.30;;;;;;4986418;28;20504;-52
2021/08/23 10:16:41;;;;;;;3.30;3.07;;;24.70;61.50;;;;;;4995326;28;20441;-53
2021/08/23 10:19:09;;;;;;;4.17;3.00;;;24.80;61.30;;;;;;4995772;28;20499;-51
2021/08/23 10:21:36;;;;;;;3.40;3.10;;;24.90;61.50;;;;;;4993682;28;20230;-53
2021/08/23 10:24:03;;;;;;;3.97;2.90;;;24.90;60.60;;;;;;4995994;28;20430;-52
2021/08/23 10:26:41;;;;;;;3.30;3.00;;;24.90;61.50;;;;;;4995788;28;20418;-52
2021/08/23 10:29:09;;;;;;;3.20;2.90;;;25.10;61.80;;;;;;4994479;28;20445;-52
2021/08/23 10:31:37;;;;;;;3.63;3.10;;;25.20;60.10;;;;;;4995997;28;20934;-50
2021/08/23 10:34:14;;;;;;;3.67;3.37;;;25.40;63.20;;;;;;4995655;28;21014;-53
2021/08/23 10:36:40;;;;;;;3.47;2.80;;;25.60;61.40;;;;;;4995071;28;20520;-52
2021/08/23 10:39:06;;;;;;;2.63;2.43;;;25.80;61.40;;;;;;4993578;28;20429;-51
2021/08/23 10:41:31;;;;;;;3.10;2.90;;;26.10;62.40;;;;;;4995869;28;20485;-52
2021/08/23 10:44:03;;;;;;;3.40;3.10;;;26.40;58.10;;;;;;4995001;28;20196;-53
2021/08/23 10:46:30;;;;;;;3.83;3.10;;;26.60;57.80;;;;;;4995681;28;20559;-53
2021/08/23 10:49:17;;;;;;;2.73;2.50;;;26.60;56.60;;;;;;4994617;28;20437;-52
2021/08/23 10:52:03;;;;;;;2.90;2.60;;;26.70;55.80;;;;;;4994297;28;20500;-52
2021/08/23 10:54:37;;;;;;;2.93;2.47;;;26.50;55.60;;;;;;4975525;28;20517;-52
2021/08/23 10:57:07;;;;;;;2.43;2.23;;;26.50;56.00;;;;;;4975362;28;20446;-53
2021/08/23 10:59:45;;;;;;;3.43;3.13;;;26.60;56.10;;;;;;4975879;28;20551;-52
2021/08/23 11:02:20;;;;;;;2.87;2.67;;;26.60;55.80;;;;;;4975363;28;20490;-52
2021/08/23 11:05:01;;;;;;;3.07;2.83;;;26.60;56.50;;;;;;4972738;28;20945;-52
2021/08/23 11:07:31;;;;;;;6.47;2.67;;;26.60;56.60;;;;;;4975050;28;20542;-53
2021/08/23 11:10:11;;;;;;;2.70;2.50;;;26.60;55.60;;;;;;4975525;28;20545;-52
2021/08/23 11:12:52;;;;;;;2.80;2.43;;;26.60;55.20;;;;;;4975131;28;20532;-51
2021/08/23 11:15:24;;;;;;;3.00;2.20;;;26.50;55.40;;;;;;4994673;28;20952;-52
2021/08/23 11:17:55;;;;;;;2.90;2.50;;;26.60;55.50;;;;;;4994625;28;20430;-52
2021/08/23 11:20:24;;;;;;;2.83;2.63;;;26.60;55.50;;;;;;4992431;28;20922;-50
2021/08/23 11:22:53;;;;;;;3.47;2.40;;;26.50;54.90;;;;;;4994385;28;20777;-52
2021/08/23 11:25:33;;;;;;;2.60;2.40;;;26.50;56.10;;;;;;4994923;28;20513;-52
2021/08/23 11:28:02;;;;;;;2.53;2.33;;;26.50;56.10;;;;;;4994237;28;20433;-52
2021/08/23 11:30:34;;;;;;;2.47;2.20;;;26.70;55.30;;;;;;4994332;28;20432;-53
2021/08/23 11:33:00;;;;;;;2.00;1.90;;;26.80;53.50;;;;;;4993169;28;20434;-51
2021/08/23 11:35:26;;;;;;;2.57;2.37;;;26.70;54.00;;;;;;4994596;28;20437;-52
2021/08/23 11:37:56;;;;;;;4.23;2.43;;;26.70;54.00;;;;;;4992893;28;21001;-51
2021/08/23 11:40:22;;;;;;;2.37;2.17;;;26.70;53.50;;;;;;4994386;28;20722;-51
2021/08/23 11:43:02;;;;;;;2.27;2.07;;;26.70;53.40;;;;;;4993945;28;20521;-52
2021/08/23 11:45:34;;;;;;;3.03;2.30;;;26.70;54.30;;;;;;4994119;28;20186;-52
2021/08/23 11:48:01;;;;;;;1.90;1.80;;;26.80;54.30;;;;;;4993861;28;20844;-52
2021/08/23 11:50:27;;;;;;;2.00;1.90;;;26.80;52.50;;;;;;4993792;28;20445;-53
2021/08/23 11:53:00;;;;;;;2.90;2.43;;;26.80;52.30;;;;;;4986029;28;20425;-53
2021/08/23 11:55:36;;;;;;;2.00;1.90;;;26.90;52.60;;;;;;4974733;28;20948;-53
2021/08/23 11:58:07;;;;;;;3.47;2.10;;;27.10;52.70;;;;;;4972576;28;20914;-52
2021/08/23 12:00:34;;;;;;;1.80;1.63;;;27.30;52.30;;;;;;4974286;28;20955;-52
2021/08/23 12:03:02;;;;;;;2.03;1.93;;;27.20;52.70;;;;;;4974126;28;20438;-52
2021/08/23 12:05:36;;;;;;;2.70;2.50;;;27.30;52.80;;;;;;4974578;28;20518;-52
2021/08/23 12:08:02;;;;;;;2.20;2.10;;;27.50;53.60;;;;;;4974063;28;20434;-52
2021/08/23 12:10:30;;;;;;;2.30;1.90;;;27.60;52.30;;;;;;4974028;28;20423;-50
2021/08/23 12:13:11;;;;;;;2.00;1.90;;;27.80;51.70;;;;;;4972672;28;20478;-53
2021/08/23 12:16:08;;;;;;;3.20;2.20;;;28.00;50.40;;;;;;4974505;28;20485;-50
2021/08/23 12:18:35;;;;;;;2.03;1.93;;;28.10;51.00;;;;;;4973391;28;20481;-52
2021/08/23 12:21:18;;;;;;;1.90;1.67;;;28.10;50.10;;;;;;4986144;28;21024;-52
2021/08/23 12:23:54;;;;;;;2.00;1.90;;;28.10;50.20;;;;;;4991811;28;20445;-52
2021/08/23 12:26:24;;;;;;;2.37;2.00;;;28.20;50.00;;;;;;4993972;28;20918;-51
2021/08/23 12:28:51;;;;;;;2.83;2.10;;;28.20;49.50;;;;;;4992546;28;20968;-50
2021/08/23 12:31:17;;;;;;;2.83;2.20;;;28.30;49.40;;;;;;4993280;28;20485;-52
2021/08/23 12:33:43;;;;;;;2.10;2.00;;;28.50;50.10;;;;;;4993010;28;20477;-53
2021/08/23 12:36:08;;;;;;;2.30;2.10;;;28.70;50.00;;;;;;4993743;28;20441;-52
2021/08/23 12:38:34;;;;;;;4.13;2.37;;;28.80;48.30;;;;;;4982516;28;20199;-51
2021/08/23 12:41:00;;;;;;;2.50;2.30;;;28.80;48.30;;;;;;4973633;28;20218;-53
2021/08/23 12:43:25;;;;;;;2.53;2.33;;;28.80;48.10;;;;;;4973778;28;20191;-52
2021/08/23 12:45:51;;;;;;;2.13;1.93;;;28.70;47.30;;;;;;4973960;28;20202;-50
2021/08/23 12:48:16;;;;;;;2.47;2.27;;;29.00;47.90;;;;;;4973337;28;20633;-51
2021/08/23 12:50:42;;;;;;;2.80;2.27;;;29.00;46.70;;;;;;4971801;28;20207;-51